sensor_id;sensor_type;location;lat;lon;timestamp;pressure;altitude;pressure_sealevel;temperature;humidity
69198;BME280;56311;50.298;8.514;2022-07-29T00:00:00;97735.78;;;18.63;54.69
69198;BME280;56311;50.298;8.514;2022-07-29T00:02:27;97730.47;;;18.21;61.14
69198;BME280;56311;50.298;8.514;2022-07-29T00:04:54;97730.69;;;17.82;73.71
69198;BME280;56311;50.298;8.514;2022-07-29T00:07:21;97737.09;;;17.23;69.44
69198;BME280;56311;50.298;8.514;2022-07-29T00:09:50;97757.47;;;17.04;72.59
69198;BME280;56311;50.298;8.514;2022-07-29T00:12:19;97756.41;;;16.87;74.80
69198;BME280;56311;50.298;8.514;2022-07-29T00:14:52;97759.34;;;16.74;77.25
69198;BME280;56311;50.298;8.514;2022-07-29T00:17:19;97757.31;;;16.62;76.48
69198;BME280;56311;50.298;8.514;2022-07-29T00:19:46;97752.22;;;16.51;76.88
69198;BME280;56311;50.298;8.514;2022-07-29T00:22:13;97753.66;;;16.58;78.76
69198;BME280;56311;50.298;8.514;2022-07-29T00:24:41;97763.34;;;16.37;82.78
69198;BME280;56311;50.298;8.514;2022-07-29T00:27:09;97758.25;;;16.27;83.63
69198;BME280;56311;50.298;8.514;2022-07-29T00:29:36;97765.78;;;16.21;86.39
69198;BME280;56311;50.298;8.514;2022-07-29T00:32:03;97773.84;;;16.09;88.51
69198;BME280;56311;50.298;8.514;2022-07-29T00:34:30;97787.50;;;16.09;89.94
69198;BME280;56311;50.298;8.514;2022-07-29T00:37:36;97761.16;;;16.04;91.10
69198;BME280;56311;50.298;8.514;2022-07-29T00:40:04;97750.53;;;16.20;92.32
69198;BME280;56311;50.298;8.514;2022-07-29T00:42:41;97762.88;;;16.27;94.26
69198;BME280;56311;50.298;8.514;2022-07-29T00:45:09;97748.47;;;16.17;98.93
69198;BME280;56311;50.298;8.514;2022-07-29T00:47:36;97735.03;;;15.95;99.94
69198;BME280;56311;50.298;8.514;2022-07-29T00:50:04;97734.06;;;15.90;100.00
69198;BME280;56311;50.298;8.514;2022-07-29T00:52:33;97727.00;;;15.98;96.05
69198;BME280;56311;50.298;8.514;2022-07-29T00:55:00;97724.25;;;15.81;99.81
69198;BME280;56311;50.298;8.514;2022-07-29T00:57:35;97722.34;;;15.64;100.00
69198;BME280;56311;50.298;8.514;2022-07-29T01:00:07;97721.06;;;15.70;99.77
69198;BME280;56311;50.298;8.514;2022-07-29T01:02:35;97719.13;;;15.79;100.00
69198;BME280;56311;50.298;8.514;2022-07-29T01:05:04;97711.44;;;15.81;100.00
69198;BME280;56311;50.298;8.514;2022-07-29T01:07:32;97726.53;;;15.79;100.00
69198;BME280;56311;50.298;8.514;2022-07-29T01:10:01;97714.66;;;15.83;100.00
69198;BME280;56311;50.298;8.514;2022-07-29T01:12:30;97724.59;;;15.70;100.00
69198;BME280;56311;50.298;8.514;2022-07-29T01:15:04;97713.19;;;15.77;100.00
69198;BME280;56311;50.298;8.514;2022-07-29T01:17:36;97711.63;;;15.85;100.00
69198;BME280;56311;50.298;8.514;2022-07-29T01:20:24;97705.50;;;15.88;100.00
69198;BME280;56311;50.298;8.514;2022-07-29T01:23:13;97708.84;;;15.76;100.00
69198;BME280;56311;50.298;8.514;2022-07-29T01:26:28;97688.66;;;15.68;100.00
69198;BME280;56311;50.298;8.514;2022-07-29T01:29:11;97679.69;;;15.68;100.00
69198;BME280;56311;50.298;8.514;2022-07-29T01:31:44;97679.22;;;15.66;100.00
69198;BME280;56311;50.298;8.514;2022-07-29T01:34:30;97683.69;;;15.62;100.00
69198;BME280;56311;50.298;8.514;2022-07-29T01:37:07;97680.16;;;15.70;100.00
69198;BME280;56311;50.298;8.514;2022-07-29T01:39:37;97664.44;;;15.75;100.00
69198;BME280;56311;50.298;8.514;2022-07-29T01:42:11;97666.53;;;15.79;100.00
69198;BME280;56311;50.298;8.514;2022-07-29T01:44:45;97669.88;;;15.75;100.00
69198;BME280;56311;50.298;8.514;2022-07-29T01:47:19;97671.34;;;15.64;100.00
69198;BME280;56311;50.298;8.514;2022-07-29T01:49:50;97669.25;;;15.70;100.00
69198;BME280;56311;50.298;8.514;2022-07-29T01:52:21;97664.09;;;15.77;100.00
69198;BME280;56311;50.298;8.514;2022-07-29T01:54:54;97662.66;;;15.80;100.00
69198;BME280;56311;50.298;8.514;2022-07-29T01:57:26;97651.13;;;15.83;100.00
69198;BME280;56311;50.298;8.514;2022-07-29T01:59:57;97654.16;;;15.81;100.00
69198;BME280;56311;50.298;8.514;2022-07-29T02:02:27;97645.66;;;15.74;100.00
69198;BME280;56311;50.298;8.514;2022-07-29T02:04:56;97648.88;;;15.67;100.00
69198;BME280;56311;50.298;8.514;2022-07-29T02:07:24;97655.28;;;15.80;100.00
69198;BME280;56311;50.298;8.514;2022-07-29T02:09:55;97657.84;;;15.76;100.00
69198;BME280;56311;50.298;8.514;2022-07-29T02:12:24;97654.78;;;15.78;100.00
69198;BME280;56311;50.298;8.514;2022-07-29T02:14:53;97652.56;;;15.80;100.00
69198;BME280;56311;50.298;8.514;2022-07-29T02:17:25;97645.19;;;15.72;100.00
69198;BME280;56311;50.298;8.514;2022-07-29T02:19:56;97651.94;;;15.66;100.00
69198;BME280;56311;50.298;8.514;2022-07-29T02:22:26;97650.97;;;15.62;100.00
69198;BME280;56311;50.298;8.514;2022-07-29T02:24:53;97651.28;;;15.69;100.00
69198;BME280;56311;50.298;8.514;2022-07-29T02:27:22;97643.75;;;15.66;100.00
69198;BME280;56311;50.298;8.514;2022-07-29T02:29:51;97641.50;;;15.59;100.00
69198;BME280;56311;50.298;8.514;2022-07-29T02:32:22;97626.56;;;15.65;100.00
69198;BME280;56311;50.298;8.514;2022-07-29T02:34:51;97630.44;;;15.73;100.00
69198;BME280;56311;50.298;8.514;2022-07-29T02:37:19;97636.53;;;15.70;100.00
69198;BME280;56311;50.298;8.514;2022-07-29T02:39:48;97631.41;;;15.59;100.00
69198;BME280;56311;50.298;8.514;2022-07-29T02:42:18;97630.78;;;15.54;100.00
69198;BME280;56311;50.298;8.514;2022-07-29T02:44:47;97627.56;;;15.60;100.00
69198;BME280;56311;50.298;8.514;2022-07-29T02:47:18;97633.03;;;15.60;100.00
69198;BME280;56311;50.298;8.514;2022-07-29T02:49:56;97626.91;;;15.64;100.00
69198;BME280;56311;50.298;8.514;2022-07-29T02:52:29;97634.13;;;15.68;100.00
69198;BME280;56311;50.298;8.514;2022-07-29T02:55:00;97641.84;;;15.57;100.00
69198;BME280;56311;50.298;8.514;2022-07-29T02:57:32;97641.38;;;15.64;100.00
69198;BME280;56311;50.298;8.514;2022-07-29T03:00:06;97642.78;;;15.70;100.00
69198;BME280;56311;50.298;8.514;2022-07-29T03:02:37;97629.31;;;15.65;100.00
69198;BME280;56311;50.298;8.514;2022-07-29T03:05:08;97630.59;;;15.59;100.00
69198;BME280;56311;50.298;8.514;2022-07-29T03:07:37;97639.59;;;15.59;100.00
69198;BME280;56311;50.298;8.514;2022-07-29T03:10:06;97649.53;;;15.55;100.00
69198;BME280;56311;50.298;8.514;2022-07-29T03:12:40;97635.91;;;15.55;100.00
69198;BME280;56311;50.298;8.514;2022-07-29T03:15:09;97642.31;;;15.59;100.00
69198;BME280;56311;50.298;8.514;2022-07-29T03:17:37;97644.75;;;15.52;100.00
69198;BME280;56311;50.298;8.514;2022-07-29T03:20:06;97631.75;;;15.49;100.00
69198;BME280;56311;50.298;8.514;2022-07-29T03:22:38;97632.53;;;15.58;100.00
69198;BME280;56311;50.298;8.514;2022-07-29T03:25:10;97625.63;;;15.61;100.00
69198;BME280;56311;50.298;8.514;2022-07-29T03:27:38;97618.25;;;15.70;100.00
69198;BME280;56311;50.298;8.514;2022-07-29T03:30:06;97629.47;;;15.69;100.00
69198;BME280;56311;50.298;8.514;2022-07-29T03:32:35;97633.94;;;15.73;100.00
69198;BME280;56311;50.298;8.514;2022-07-29T03:35:03;97636.84;;;15.68;100.00
69198;BME280;56311;50.298;8.514;2022-07-29T03:37:32;97632.66;;;15.71;100.00
69198;BME280;56311;50.298;8.514;2022-07-29T03:40:02;97630.16;;;15.57;100.00
69198;BME280;56311;50.298;8.514;2022-07-29T03:42:31;97619.09;;;15.53;100.00
69198;BME280;56311;50.298;8.514;2022-07-29T03:45:03;97610.75;;;15.50;100.00
69198;BME280;56311;50.298;8.514;2022-07-29T03:47:33;97599.53;;;15.34;100.00
69198;BME280;56311;50.298;8.514;2022-07-29T03:50:17;97598.25;;;15.40;100.00
69198;BME280;56311;50.298;8.514;2022-07-29T03:52:47;97603.53;;;15.45;100.00
69198;BME280;56311;50.298;8.514;2022-07-29T03:55:15;97609.94;;;15.49;100.00
69198;BME280;56311;50.298;8.514;2022-07-29T03:57:44;97614.13;;;15.38;100.00
69198;BME280;56311;50.298;8.514;2022-07-29T04:00:13;97603.56;;;15.19;100.00
69198;BME280;56311;50.298;8.514;2022-07-29T04:02:40;97601.31;;;15.12;100.00
69198;BME280;56311;50.298;8.514;2022-07-29T04:05:12;97609.66;;;15.24;100.00
69198;BME280;56311;50.298;8.514;2022-07-29T04:07:39;97605.63;;;15.22;100.00
69198;BME280;56311;50.298;8.514;2022-07-29T04:10:08;97608.34;;;15.22;100.00
69198;BME280;56311;50.298;8.514;2022-07-29T04:12:35;97606.75;;;15.12;100.00
69198;BME280;56311;50.298;8.514;2022-07-29T04:15:02;97616.88;;;15.20;100.00
69198;BME280;56311;50.298;8.514;2022-07-29T04:17:29;97609.03;;;15.10;100.00
69198;BME280;56311;50.298;8.514;2022-07-29T04:19:56;97611.25;;;15.08;100.00
69198;BME280;56311;50.298;8.514;2022-07-29T04:22:23;97619.09;;;15.09;100.00
69198;BME280;56311;50.298;8.514;2022-07-29T04:24:52;97608.06;;;15.06;100.00
69198;BME280;56311;50.298;8.514;2022-07-29T04:27:21;97607.72;;;14.99;100.00
69198;BME280;56311;50.298;8.514;2022-07-29T04:29:48;97612.06;;;15.00;100.00
69198;BME280;56311;50.298;8.514;2022-07-29T04:32:23;97610.00;;;14.96;100.00
69198;BME280;56311;50.298;8.514;2022-07-29T04:34:50;97624.25;;;14.93;100.00
69198;BME280;56311;50.298;8.514;2022-07-29T04:37:17;97612.06;;;14.82;100.00
69198;BME280;56311;50.298;8.514;2022-07-29T04:39:44;97618.31;;;14.83;100.00
69198;BME280;56311;50.298;8.514;2022-07-29T04:42:11;97617.66;;;14.77;100.00
69198;BME280;56311;50.298;8.514;2022-07-29T04:44:40;97612.19;;;14.68;100.00
69198;BME280;56311;50.298;8.514;2022-07-29T04:47:08;97623.50;;;14.61;100.00
69198;BME280;56311;50.298;8.514;2022-07-29T04:49:37;97620.78;;;14.61;100.00
69198;BME280;56311;50.298;8.514;2022-07-29T04:52:05;97610.84;;;14.48;100.00
69198;BME280;56311;50.298;8.514;2022-07-29T04:54:32;97615.66;;;14.51;100.00
69198;BME280;56311;50.298;8.514;2022-07-29T04:57:00;97611.94;;;14.47;100.00
69198;BME280;56311;50.298;8.514;2022-07-29T04:59:27;97619.66;;;14.45;100.00
69198;BME280;56311;50.298;8.514;2022-07-29T05:01:55;97619.66;;;14.45;100.00
69198;BME280;56311;50.298;8.514;2022-07-29T05:04:22;97619.34;;;14.55;100.00
69198;BME280;56311;50.298;8.514;2022-07-29T05:06:49;97632.16;;;14.55;100.00
69198;BME280;56311;50.298;8.514;2022-07-29T05:09:16;97635.06;;;14.58;100.00
69198;BME280;56311;50.298;8.514;2022-07-29T05:11:43;97632.00;;;14.60;100.00
69198;BME280;56311;50.298;8.514;2022-07-29T05:14:10;97634.31;;;14.67;100.00
69198;BME280;56311;50.298;8.514;2022-07-29T05:16:37;97633.34;;;14.80;100.00
69198;BME280;56311;50.298;8.514;2022-07-29T05:19:08;97641.94;;;14.64;100.00
69198;BME280;56311;50.298;8.514;2022-07-29T05:21:40;97631.84;;;14.65;100.00
69198;BME280;56311;50.298;8.514;2022-07-29T05:24:07;97645.03;;;14.72;100.00
69198;BME280;56311;50.298;8.514;2022-07-29T05:26:34;97637.19;;;14.88;100.00
69198;BME280;56311;50.298;8.514;2022-07-29T05:29:02;97633.19;;;14.85;100.00
69198;BME280;56311;50.298;8.514;2022-07-29T05:31:29;97637.22;;;14.96;100.00
69198;BME280;56311;50.298;8.514;2022-07-29T05:33:56;97641.88;;;14.96;100.00
69198;BME280;56311;50.298;8.514;2022-07-29T05:36:25;97644.41;;;15.01;100.00
69198;BME280;56311;50.298;8.514;2022-07-29T05:38:52;97641.22;;;15.17;100.00
69198;BME280;56311;50.298;8.514;2022-07-29T05:41:19;97647.16;;;15.36;100.00
69198;BME280;56311;50.298;8.514;2022-07-29T05:43:46;97649.22;;;15.48;100.00
69198;BME280;56311;50.298;8.514;2022-07-29T05:46:13;97651.44;;;15.64;100.00
69198;BME280;56311;50.298;8.514;2022-07-29T05:48:40;97654.00;;;15.69;100.00
69198;BME280;56311;50.298;8.514;2022-07-29T05:51:08;97652.22;;;15.90;100.00
69198;BME280;56311;50.298;8.514;2022-07-29T05:53:36;97658.59;;;16.03;100.00
69198;BME280;56311;50.298;8.514;2022-07-29T05:56:04;97653.94;;;16.13;100.00
69198;BME280;56311;50.298;8.514;2022-07-29T05:58:32;97650.66;;;16.28;100.00
69198;BME280;56311;50.298;8.514;2022-07-29T06:00:59;97653.84;;;16.39;100.00
69198;BME280;56311;50.298;8.514;2022-07-29T06:03:27;97654.72;;;16.52;100.00
69198;BME280;56311;50.298;8.514;2022-07-29T06:05:54;97657.84;;;16.71;100.00
69198;BME280;56311;50.298;8.514;2022-07-29T06:08:21;97650.91;;;16.74;100.00
69198;BME280;56311;50.298;8.514;2022-07-29T06:10:50;97649.09;;;16.78;100.00
69198;BME280;56311;50.298;8.514;2022-07-29T06:13:17;97652.44;;;16.84;99.38
69198;BME280;56311;50.298;8.514;2022-07-29T06:15:44;97647.88;;;16.97;100.00
69198;BME280;56311;50.298;8.514;2022-07-29T06:18:12;97649.75;;;17.05;100.00
69198;BME280;56311;50.298;8.514;2022-07-29T06:20:40;97654.34;;;16.92;95.93
69198;BME280;56311;50.298;8.514;2022-07-29T06:23:07;97653.47;;;17.00;91.35
69198;BME280;56311;50.298;8.514;2022-07-29T06:25:34;97652.84;;;17.25;94.50
69198;BME280;56311;50.298;8.514;2022-07-29T06:28:06;97655.88;;;17.44;93.30
69198;BME280;56311;50.298;8.514;2022-07-29T06:30:33;97654.69;;;17.33;92.38
69198;BME280;56311;50.298;8.514;2022-07-29T06:33:00;97660.41;;;17.40;88.90
69198;BME280;56311;50.298;8.514;2022-07-29T06:35:29;97655.00;;;17.53;88.74
69198;BME280;56311;50.298;8.514;2022-07-29T06:38:07;97649.00;;;17.72;86.66
69198;BME280;56311;50.298;8.514;2022-07-29T06:40:54;97649.13;;;17.75;86.61
69198;BME280;56311;50.298;8.514;2022-07-29T06:43:37;97652.97;;;17.95;86.79
69198;BME280;56311;50.298;8.514;2022-07-29T06:46:16;97644.38;;;17.85;85.79
69198;BME280;56311;50.298;8.514;2022-07-29T06:48:47;97649.00;;;18.05;85.87
69198;BME280;56311;50.298;8.514;2022-07-29T06:51:15;97657.84;;;18.36;91.58
69198;BME280;56311;50.298;8.514;2022-07-29T06:53:49;97657.38;;;18.34;87.31
69198;BME280;56311;50.298;8.514;2022-07-29T06:56:28;97661.69;;;18.22;84.07
69198;BME280;56311;50.298;8.514;2022-07-29T06:58:57;97666.63;;;18.29;81.64
69198;BME280;56311;50.298;8.514;2022-07-29T07:01:24;97671.66;;;18.52;81.09
69198;BME280;56311;50.298;8.514;2022-07-29T07:03:51;97671.63;;;18.76;82.24
69198;BME280;56311;50.298;8.514;2022-07-29T07:06:19;97666.16;;;19.01;83.44
69198;BME280;56311;50.298;8.514;2022-07-29T07:08:46;97670.94;;;19.04;79.86
69198;BME280;56311;50.298;8.514;2022-07-29T07:11:13;97671.94;;;19.24;83.07
69198;BME280;56311;50.298;8.514;2022-07-29T07:13:40;97670.56;;;19.18;79.50
69198;BME280;56311;50.298;8.514;2022-07-29T07:16:09;97682.97;;;19.40;78.73
69198;BME280;56311;50.298;8.514;2022-07-29T07:18:37;97678.44;;;19.61;80.00
69198;BME280;56311;50.298;8.514;2022-07-29T07:21:04;97676.44;;;19.73;76.68
69198;BME280;56311;50.298;8.514;2022-07-29T07:23:32;97677.84;;;19.67;73.23
69198;BME280;56311;50.298;8.514;2022-07-29T07:25:59;97681.47;;;19.71;71.72
69198;BME280;56311;50.298;8.514;2022-07-29T07:28:26;97683.53;;;19.75;70.32
69198;BME280;56311;50.298;8.514;2022-07-29T07:30:54;97683.50;;;19.87;69.03
69198;BME280;56311;50.298;8.514;2022-07-29T07:33:23;97689.47;;;20.21;70.69
69198;BME280;56311;50.298;8.514;2022-07-29T07:35:52;97692.50;;;20.16;71.42
69198;BME280;56311;50.298;8.514;2022-07-29T07:38:19;97685.22;;;20.24;71.87
69198;BME280;56311;50.298;8.514;2022-07-29T07:40:46;97692.22;;;20.05;67.30
69198;BME280;56311;50.298;8.514;2022-07-29T07:43:14;97683.56;;;20.35;66.66
69198;BME280;56311;50.298;8.514;2022-07-29T07:45:41;97687.53;;;20.54;67.17
69198;BME280;56311;50.298;8.514;2022-07-29T07:48:08;97672.44;;;20.63;66.22
69198;BME280;56311;50.298;8.514;2022-07-29T07:50:38;97673.72;;;20.82;66.49
69198;BME280;56311;50.298;8.514;2022-07-29T07:53:06;97678.22;;;20.58;65.80
69198;BME280;56311;50.298;8.514;2022-07-29T07:55:33;97681.13;;;20.65;67.76
69198;BME280;56311;50.298;8.514;2022-07-29T07:58:20;97680.16;;;20.90;69.95
69198;BME280;56311;50.298;8.514;2022-07-29T08:00:47;97673.00;;;21.05;67.59
69198;BME280;56311;50.298;8.514;2022-07-29T08:03:15;97676.16;;;21.23;66.99
69198;BME280;56311;50.298;8.514;2022-07-29T08:05:45;97671.88;;;21.25;67.61
69198;BME280;56311;50.298;8.514;2022-07-29T08:08:14;97678.97;;;21.26;66.02
69198;BME280;56311;50.298;8.514;2022-07-29T08:10:41;97674.22;;;21.43;67.74
69198;BME280;56311;50.298;8.514;2022-07-29T08:13:23;97677.53;;;21.33;69.16
69198;BME280;56311;50.298;8.514;2022-07-29T08:15:52;97670.00;;;21.29;67.10
69198;BME280;56311;50.298;8.514;2022-07-29T08:18:27;97678.66;;;21.67;64.86
69198;BME280;56311;50.298;8.514;2022-07-29T08:20:56;97666.41;;;21.84;62.95
69198;BME280;56311;50.298;8.514;2022-07-29T08:23:24;97672.34;;;21.86;62.27
69198;BME280;56311;50.298;8.514;2022-07-29T08:26:12;97678.59;;;21.63;63.18
69198;BME280;56311;50.298;8.514;2022-07-29T08:28:41;97676.41;;;21.73;63.55
69198;BME280;56311;50.298;8.514;2022-07-29T08:31:13;97682.00;;;21.76;65.53
69198;BME280;56311;50.298;8.514;2022-07-29T08:33:40;97677.41;;;21.84;61.67
69198;BME280;56311;50.298;8.514;2022-07-29T08:36:09;97676.59;;;22.26;61.22
69198;BME280;56311;50.298;8.514;2022-07-29T08:38:37;97684.44;;;22.24;62.51
69198;BME280;56311;50.298;8.514;2022-07-29T08:41:04;97680.63;;;22.33;61.03
69198;BME280;56311;50.298;8.514;2022-07-29T08:43:31;97682.97;;;22.54;61.08
69198;BME280;56311;50.298;8.514;2022-07-29T08:46:01;97678.19;;;22.51;60.60
69198;BME280;56311;50.298;8.514;2022-07-29T08:48:29;97675.72;;;22.69;59.01
69198;BME280;56311;50.298;8.514;2022-07-29T08:50:57;97684.13;;;23.03;61.53
69198;BME280;56311;50.298;8.514;2022-07-29T08:53:27;97690.38;;;23.27;61.01
69198;BME280;56311;50.298;8.514;2022-07-29T08:55:55;97690.06;;;23.32;57.24
69198;BME280;56311;50.298;8.514;2022-07-29T08:58:23;97688.19;;;23.40;57.22
69198;BME280;56311;50.298;8.514;2022-07-29T09:00:54;97682.31;;;22.87;58.09
69198;BME280;56311;50.298;8.514;2022-07-29T09:03:24;97686.13;;;23.06;57.74
69198;BME280;56311;50.298;8.514;2022-07-29T09:05:52;97689.81;;;23.44;55.38
69198;BME280;56311;50.298;8.514;2022-07-29T09:08:20;97685.16;;;23.52;55.98
69198;BME280;56311;50.298;8.514;2022-07-29T09:13:56;97695.06;;;24.25;55.22
69198;BME280;56311;50.298;8.514;2022-07-29T09:16:24;97679.63;;;23.86;53.88
69198;BME280;56311;50.298;8.514;2022-07-29T09:19:20;97683.41;;;23.67;54.10
69198;BME280;56311;50.298;8.514;2022-07-29T09:21:47;97681.19;;;23.83;53.81
69198;BME280;56311;50.298;8.514;2022-07-29T09:24:40;97683.22;;;23.87;48.96
69198;BME280;56311;50.298;8.514;2022-07-29T09:27:18;97674.66;;;24.40;54.65
69198;BME280;56311;50.298;8.514;2022-07-29T09:29:55;97674.97;;;24.76;51.30
69198;BME280;56311;50.298;8.514;2022-07-29T09:32:23;97671.16;;;24.95;51.45
69198;BME280;56311;50.298;8.514;2022-07-29T09:34:50;97673.13;;;24.95;50.19
69198;BME280;56311;50.298;8.514;2022-07-29T09:37:27;97666.50;;;25.07;49.72
69198;BME280;56311;50.298;8.514;2022-07-29T09:39:55;97669.59;;;24.50;49.90
69198;BME280;56311;50.298;8.514;2022-07-29T09:42:28;97661.03;;;24.66;50.96
69198;BME280;56311;50.298;8.514;2022-07-29T09:44:56;97659.75;;;24.52;48.29
69198;BME280;56311;50.298;8.514;2022-07-29T09:47:41;97658.25;;;24.62;49.03
69198;BME280;56311;50.298;8.514;2022-07-29T09:50:08;97660.41;;;24.35;50.85
69198;BME280;56311;50.298;8.514;2022-07-29T09:52:46;97662.25;;;24.20;53.12
69198;BME280;56311;50.298;8.514;2022-07-29T09:55:13;97661.50;;;24.71;48.49
69198;BME280;56311;50.298;8.514;2022-07-29T09:57:44;97661.75;;;25.11;46.01
69198;BME280;56311;50.298;8.514;2022-07-29T10:00:15;97663.41;;;25.23;45.17
69198;BME280;56311;50.298;8.514;2022-07-29T10:02:43;97673.47;;;25.53;45.77
69198;BME280;56311;50.298;8.514;2022-07-29T10:05:20;97672.09;;;25.21;44.12
69198;BME280;56311;50.298;8.514;2022-07-29T10:07:49;97669.50;;;25.57;45.24
69198;BME280;56311;50.298;8.514;2022-07-29T10:10:25;62402.38;;;-147.88;100.00
69198;BME280;56311;50.298;8.514;2022-07-29T10:12:55;97669.50;;;25.57;45.24
69198;BME280;56311;50.298;8.514;2022-07-29T10:15:30;97655.72;;;25.86;45.88
69198;BME280;56311;50.298;8.514;2022-07-29T10:17:59;97663.25;;;25.82;47.18
69198;BME280;56311;50.298;8.514;2022-07-29T10:20:27;97659.16;;;25.43;44.66
69198;BME280;56311;50.298;8.514;2022-07-29T10:22:56;97659.66;;;25.64;45.20
69198;BME280;56311;50.298;8.514;2022-07-29T10:25:24;97663.66;;;25.88;46.52
69198;BME280;56311;50.298;8.514;2022-07-29T10:27:52;97653.44;;;26.35;44.87
69198;BME280;56311;50.298;8.514;2022-07-29T10:30:23;97649.91;;;26.46;43.57
69198;BME280;56311;50.298;8.514;2022-07-29T10:33:18;97655.38;;;26.06;43.98
69198;BME280;56311;50.298;8.514;2022-07-29T10:36:01;97653.38;;;25.96;43.31
69198;BME280;56311;50.298;8.514;2022-07-29T10:38:45;97646.31;;;26.31;45.11
69198;BME280;56311;50.298;8.514;2022-07-29T10:41:37;97647.50;;;26.66;43.05
69198;BME280;56311;50.298;8.514;2022-07-29T10:44:27;97651.84;;;26.92;43.70
69198;BME280;56311;50.298;8.514;2022-07-29T10:46:55;97654.91;;;27.34;41.31
69198;BME280;56311;50.298;8.514;2022-07-29T10:49:26;97652.63;;;27.07;40.98
69198;BME280;56311;50.298;8.514;2022-07-29T10:52:01;97657.81;;;26.73;42.67
69198;BME280;56311;50.298;8.514;2022-07-29T10:54:39;97644.69;;;26.98;41.86
69198;BME280;56311;50.298;8.514;2022-07-29T10:57:12;97639.94;;;26.95;41.55
69198;BME280;56311;50.298;8.514;2022-07-29T10:59:40;97644.16;;;27.36;43.54
69198;BME280;56311;50.298;8.514;2022-07-29T11:05:13;97643.75;;;27.52;41.35
69198;BME280;56311;50.298;8.514;2022-07-29T11:14:03;97646.00;;;28.39;39.79
69198;BME280;56311;50.298;8.514;2022-07-29T11:17:00;97637.41;;;27.37;39.73
69198;BME280;56311;50.298;8.514;2022-07-29T11:19:33;97639.13;;;27.02;41.99
69198;BME280;56311;50.298;8.514;2022-07-29T11:22:03;97634.44;;;27.84;40.20
69198;BME280;56311;50.298;8.514;2022-07-29T11:24:35;97637.38;;;28.22;40.24
69198;BME280;56311;50.298;8.514;2022-07-29T11:27:10;97634.19;;;28.24;41.18
69198;BME280;56311;50.298;8.514;2022-07-29T11:29:58;97639.19;;;26.80;42.07
69198;BME280;56311;50.298;8.514;2022-07-29T11:32:36;97632.44;;;26.34;42.09
69198;BME280;56311;50.298;8.514;2022-07-29T11:35:16;97636.41;;;26.12;42.38
69198;BME280;56311;50.298;8.514;2022-07-29T11:38:26;97637.63;;;26.40;43.78
69198;BME280;56311;50.298;8.514;2022-07-29T11:41:19;97633.22;;;26.89;43.08
69198;BME280;56311;50.298;8.514;2022-07-29T11:43:53;97640.38;;;27.86;41.77
69198;BME280;56311;50.298;8.514;2022-07-29T11:46:44;97640.59;;;28.21;39.29
69198;BME280;56311;50.298;8.514;2022-07-29T11:49:20;97632.88;;;27.79;40.30
69198;BME280;56311;50.298;8.514;2022-07-29T11:51:59;97629.38;;;27.64;39.86
69198;BME280;56311;50.298;8.514;2022-07-29T11:54:32;97625.25;;;27.06;40.55
69198;BME280;56311;50.298;8.514;2022-07-29T11:57:20;97628.06;;;27.87;43.04
69198;BME280;56311;50.298;8.514;2022-07-29T11:59:48;97619.56;;;27.38;41.66
69198;BME280;56311;50.298;8.514;2022-07-29T12:02:16;97616.00;;;27.45;41.22
69198;BME280;56311;50.298;8.514;2022-07-29T12:05:02;97627.97;;;27.24;41.05
69198;BME280;56311;50.298;8.514;2022-07-29T12:07:38;97626.50;;;26.79;42.10
69198;BME280;56311;50.298;8.514;2022-07-29T12:10:13;97618.75;;;27.48;41.54
69198;BME280;56311;50.298;8.514;2022-07-29T12:12:55;97609.72;;;28.53;39.53
69198;BME280;56311;50.298;8.514;2022-07-29T12:15:23;97612.16;;;27.91;40.82
69198;BME280;56311;50.298;8.514;2022-07-29T12:18:13;97600.03;;;28.69;40.31
69198;BME280;56311;50.298;8.514;2022-07-29T12:20:40;97600.91;;;29.35;39.31
69198;BME280;56311;50.298;8.514;2022-07-29T12:23:11;97599.75;;;29.32;38.18
69198;BME280;56311;50.298;8.514;2022-07-29T12:25:44;97585.28;;;29.10;38.69
69198;BME280;56311;50.298;8.514;2022-07-29T12:28:16;97587.72;;;29.04;37.44
69198;BME280;56311;50.298;8.514;2022-07-29T12:30:53;97589.53;;;29.18;37.77
69198;BME280;56311;50.298;8.514;2022-07-29T12:33:22;97603.91;;;28.82;37.95
69198;BME280;56311;50.298;8.514;2022-07-29T12:35:51;97585.09;;;28.48;37.38
69198;BME280;56311;50.298;8.514;2022-07-29T12:38:33;97583.16;;;29.21;37.95
69198;BME280;56311;50.298;8.514;2022-07-29T12:41:02;97582.41;;;29.17;37.32
69198;BME280;56311;50.298;8.514;2022-07-29T12:43:31;97577.69;;;29.73;37.68
69198;BME280;56311;50.298;8.514;2022-07-29T12:46:11;97580.25;;;29.32;37.53
69198;BME280;56311;50.298;8.514;2022-07-29T12:48:40;97571.41;;;29.37;35.82
69198;BME280;56311;50.298;8.514;2022-07-29T12:51:08;97576.41;;;29.53;36.06
69198;BME280;56311;50.298;8.514;2022-07-29T12:53:37;97570.88;;;29.77;36.25
69198;BME280;56311;50.298;8.514;2022-07-29T12:56:06;97572.56;;;29.40;36.38
69198;BME280;56311;50.298;8.514;2022-07-29T12:59:11;97570.94;;;29.46;38.43
69198;BME280;56311;50.298;8.514;2022-07-29T13:01:40;97564.09;;;28.85;39.26
69198;BME280;56311;50.298;8.514;2022-07-29T13:04:07;97565.88;;;28.23;40.48
69198;BME280;56311;50.298;8.514;2022-07-29T13:06:36;97570.59;;;27.73;40.04
69198;BME280;56311;50.298;8.514;2022-07-29T13:09:09;97569.53;;;27.53;41.56
69198;BME280;56311;50.298;8.514;2022-07-29T13:11:40;97578.09;;;26.91;42.53
69198;BME280;56311;50.298;8.514;2022-07-29T13:14:29;97571.00;;;26.76;41.98
69198;BME280;56311;50.298;8.514;2022-07-29T13:17:04;97579.75;;;26.56;42.63
69198;BME280;56311;50.298;8.514;2022-07-29T13:19:33;97580.16;;;26.36;42.72
69198;BME280;56311;50.298;8.514;2022-07-29T13:22:01;97574.22;;;26.16;43.71
69198;BME280;56311;50.298;8.514;2022-07-29T13:24:28;97573.41;;;26.01;42.87
69198;BME280;56311;50.298;8.514;2022-07-29T13:26:57;97570.66;;;25.90;42.92
69198;BME280;56311;50.298;8.514;2022-07-29T13:29:24;97570.25;;;25.92;43.64